sensor_id;sensor_type;location;lat;lon;timestamp;pressure;altitude;pressure_sealevel;temperature;humidity
81704;BME280;71117;52.352;4.808;2024-01-11T00:00:40;103491.81;;;-3.17;70.67
81704;BME280;71117;52.352;4.808;2024-01-11T00:03:05;103487.22;;;-3.20;69.73
81704;BME280;71117;52.352;4.808;2024-01-11T00:05:31;103494.97;;;-3.20;70.46
81704;BME280;71117;52.352;4.808;2024-01-11T00:07:56;103490.91;;;-3.17;70.47
81704;BME280;71117;52.352;4.808;2024-01-11T00:10:22;103489.41;;;-3.15;70.89
81704;BME280;71117;52.352;4.808;2024-01-11T00:12:47;103478.69;;;-3.11;69.53
81704;BME280;71117;52.352;4.808;2024-01-11T00:15:13;103474.81;;;-3.15;69.42
81704;BME280;71117;52.352;4.808;2024-01-11T00:17:38;103483.31;;;-3.16;70.98
81704;BME280;71117;52.352;4.808;2024-01-11T00:20:04;103477.44;;;-3.22;70.97
81704;BME280;71117;52.352;4.808;2024-01-11T00:22:30;103481.13;;;-3.20;69.98
81704;BME280;71117;52.352;4.808;2024-01-11T00:24:55;103485.38;;;-3.21;70.93
81704;BME280;71117;52.352;4.808;2024-01-11T00:27:21;103496.81;;;-3.18;70.27
81704;BME280;71117;52.352;4.808;2024-01-11T00:29:49;103487.94;;;-3.21;70.82
81704;BME280;71117;52.352;4.808;2024-01-11T00:32:14;103482.63;;;-3.22;70.83
81704;BME280;71117;52.352;4.808;2024-01-11T00:34:39;103482.97;;;-3.19;70.83
81704;BME280;71117;52.352;4.808;2024-01-11T00:37:05;103478.75;;;-3.26;71.64
81704;BME280;71117;52.352;4.808;2024-01-11T00:39:30;103480.63;;;-3.32;71.26
81704;BME280;71117;52.352;4.808;2024-01-11T00:41:55;103473.28;;;-3.43;71.47
81704;BME280;71117;52.352;4.808;2024-01-11T00:44:21;103475.91;;;-3.50;71.88
81704;BME280;71117;52.352;4.808;2024-01-11T00:46:46;103469.78;;;-3.43;72.98
81704;BME280;71117;52.352;4.808;2024-01-11T00:49:12;103480.31;;;-3.42;73.85
81704;BME280;71117;52.352;4.808;2024-01-11T00:51:37;103489.69;;;-3.35;73.74
81704;BME280;71117;52.352;4.808;2024-01-11T00:54:03;103484.69;;;-3.34;73.74
81704;BME280;71117;52.352;4.808;2024-01-11T00:56:28;103482.88;;;-3.35;75.64
81704;BME280;71117;52.352;4.808;2024-01-11T00:58:53;103482.28;;;-3.32;76.27
81704;BME280;71117;52.352;4.808;2024-01-11T01:01:18;103479.69;;;-3.32;74.74
81704;BME280;71117;52.352;4.808;2024-01-11T01:03:44;103484.13;;;-3.31;76.12
81704;BME280;71117;52.352;4.808;2024-01-11T01:06:09;103488.56;;;-3.37;76.27
81704;BME280;71117;52.352;4.808;2024-01-11T01:08:34;103481.25;;;-3.41;76.48
81704;BME280;71117;52.352;4.808;2024-01-11T01:11:00;103481.59;;;-3.38;77.02
81704;BME280;71117;52.352;4.808;2024-01-11T01:13:25;103482.50;;;-3.38;77.66
81704;BME280;71117;52.352;4.808;2024-01-11T01:15:51;103484.75;;;-3.41;76.11
81704;BME280;71117;52.352;4.808;2024-01-11T01:18:16;103492.66;;;-3.39;76.21
81704;BME280;71117;52.352;4.808;2024-01-11T01:20:41;103478.13;;;-3.46;76.85
81704;BME280;71117;52.352;4.808;2024-01-11T01:23:07;103483.63;;;-3.43;76.09
81704;BME280;71117;52.352;4.808;2024-01-11T01:25:32;103486.19;;;-3.43;76.61
81704;BME280;71117;52.352;4.808;2024-01-11T01:27:58;103490.66;;;-3.42;77.21
81704;BME280;71117;52.352;4.808;2024-01-11T01:30:24;103499.50;;;-3.40;77.21
81704;BME280;71117;52.352;4.808;2024-01-11T01:32:49;103490.28;;;-3.45;76.73
81704;BME280;71117;52.352;4.808;2024-01-11T01:35:17;103487.69;;;-3.45;77.07
81704;BME280;71117;52.352;4.808;2024-01-11T01:37:42;103486.03;;;-3.44;76.83
81704;BME280;71117;52.352;4.808;2024-01-11T01:40:08;103488.28;;;-3.48;76.67
81704;BME280;71117;52.352;4.808;2024-01-11T01:42:34;103489.91;;;-3.48;77.15
81704;BME280;71117;52.352;4.808;2024-01-11T01:44:59;103481.28;;;-3.56;78.38
81704;BME280;71117;52.352;4.808;2024-01-11T01:47:26;103489.94;;;-3.55;76.79
81704;BME280;71117;52.352;4.808;2024-01-11T01:49:52;103484.78;;;-3.55;78.39
81704;BME280;71117;52.352;4.808;2024-01-11T01:52:18;103495.50;;;-3.52;79.14
81704;BME280;71117;52.352;4.808;2024-01-11T01:54:44;103501.00;;;-3.49;78.17
81704;BME280;71117;52.352;4.808;2024-01-11T01:57:10;103503.41;;;-3.51;77.91
81704;BME280;71117;52.352;4.808;2024-01-11T01:59:37;103509.84;;;-3.54;78.91
81704;BME280;71117;52.352;4.808;2024-01-11T02:02:04;103512.44;;;-3.47;79.62
81704;BME280;71117;52.352;4.808;2024-01-11T02:04:30;103515.53;;;-3.42;79.89
81704;BME280;71117;52.352;4.808;2024-01-11T02:06:56;103508.91;;;-3.40;79.55
81704;BME280;71117;52.352;4.808;2024-01-11T02:09:25;103512.94;;;-3.35;79.23
81704;BME280;71117;52.352;4.808;2024-01-11T02:11:52;103512.19;;;-3.34;79.54
81704;BME280;71117;52.352;4.808;2024-01-11T02:14:18;103509.44;;;-3.36;79.35
81704;BME280;71117;52.352;4.808;2024-01-11T02:16:43;103508.69;;;-3.35;78.67
81704;BME280;71117;52.352;4.808;2024-01-11T02:19:12;103505.19;;;-3.42;79.79
81704;BME280;71117;52.352;4.808;2024-01-11T02:21:38;103507.56;;;-3.37;79.26
81704;BME280;71117;52.352;4.808;2024-01-11T02:24:06;103498.56;;;-3.40;80.77
81704;BME280;71117;52.352;4.808;2024-01-11T02:26:32;103498.91;;;-3.37;80.65
81704;BME280;71117;52.352;4.808;2024-01-11T02:29:03;103501.91;;;-3.41;80.40
81704;BME280;71117;52.352;4.808;2024-01-11T02:31:28;103495.44;;;-3.45;79.89
81704;BME280;71117;52.352;4.808;2024-01-11T02:33:55;103492.88;;;-3.45;80.19
81704;BME280;71117;52.352;4.808;2024-01-11T02:36:21;103499.00;;;-3.52;81.51
81704;BME280;71117;52.352;4.808;2024-01-11T02:38:47;103498.63;;;-3.55;81.00
81704;BME280;71117;52.352;4.808;2024-01-11T02:41:16;103497.16;;;-3.53;81.18
81704;BME280;71117;52.352;4.808;2024-01-11T02:43:46;103504.91;;;-3.53;82.46
81704;BME280;71117;52.352;4.808;2024-01-11T02:46:12;103493.66;;;-3.53;82.42
81704;BME280;71117;52.352;4.808;2024-01-11T02:48:40;103499.53;;;-3.54;82.80
81704;BME280;71117;52.352;4.808;2024-01-11T02:51:06;103499.31;;;-3.49;83.90
81704;BME280;71117;52.352;4.808;2024-01-11T02:53:31;103495.63;;;-3.43;84.45
81704;BME280;71117;52.352;4.808;2024-01-11T02:56:02;103503.38;;;-3.43;84.90
81704;BME280;71117;52.352;4.808;2024-01-11T02:58:27;103502.81;;;-3.48;83.65
81704;BME280;71117;52.352;4.808;2024-01-11T03:00:52;103506.88;;;-3.43;84.59
81704;BME280;71117;52.352;4.808;2024-01-11T03:03:18;103508.94;;;-3.48;85.67
81704;BME280;71117;52.352;4.808;2024-01-11T03:05:43;103511.31;;;-3.42;84.98
81704;BME280;71117;52.352;4.808;2024-01-11T03:08:08;103512.03;;;-3.36;85.93
81704;BME280;71117;52.352;4.808;2024-01-11T03:10:33;103506.28;;;-3.33;84.59
81704;BME280;71117;52.352;4.808;2024-01-11T03:12:59;103507.03;;;-3.34;85.15
81704;BME280;71117;52.352;4.808;2024-01-11T03:15:24;103505.19;;;-3.35;85.43
81704;BME280;71117;52.352;4.808;2024-01-11T03:17:50;103504.06;;;-3.37;85.07
81704;BME280;71117;52.352;4.808;2024-01-11T03:20:15;103516.44;;;-3.35;85.16
81704;BME280;71117;52.352;4.808;2024-01-11T03:22:46;103512.72;;;-3.30;85.18
81704;BME280;71117;52.352;4.808;2024-01-11T03:25:14;103506.25;;;-3.26;85.47
81704;BME280;71117;52.352;4.808;2024-01-11T03:27:40;103506.25;;;-3.26;84.97
81704;BME280;71117;52.352;4.808;2024-01-11T03:30:06;103502.19;;;-3.31;84.52
81704;BME280;71117;52.352;4.808;2024-01-11T03:32:32;103508.16;;;-3.39;85.88
81704;BME280;71117;52.352;4.808;2024-01-11T03:34:57;103503.00;;;-3.39;86.22
81704;BME280;71117;52.352;4.808;2024-01-11T03:37:22;103506.69;;;-3.44;85.48
81704;BME280;71117;52.352;4.808;2024-01-11T03:39:47;103508.53;;;-3.43;86.61
81704;BME280;71117;52.352;4.808;2024-01-11T03:42:13;103501.16;;;-3.40;85.96
81704;BME280;71117;52.352;4.808;2024-01-11T03:44:38;103494.53;;;-3.46;86.46
81704;BME280;71117;52.352;4.808;2024-01-11T03:47:03;103500.63;;;-3.45;86.11
81704;BME280;71117;52.352;4.808;2024-01-11T03:49:29;103496.94;;;-3.47;86.81
81704;BME280;71117;52.352;4.808;2024-01-11T03:51:54;103511.53;;;-3.55;85.86
81704;BME280;71117;52.352;4.808;2024-01-11T03:54:19;103508.56;;;-3.51;87.07
81704;BME280;71117;52.352;4.808;2024-01-11T03:56:47;103505.94;;;-3.43;86.51
81704;BME280;71117;52.352;4.808;2024-01-11T03:59:13;103508.38;;;-3.45;86.67
81704;BME280;71117;52.352;4.808;2024-01-11T04:01:42;103504.66;;;-3.40;86.70
81704;BME280;71117;52.352;4.808;2024-01-11T04:04:08;103498.94;;;-3.44;85.81
81704;BME280;71117;52.352;4.808;2024-01-11T04:06:33;103509.66;;;-3.41;87.17
81704;BME280;71117;52.352;4.808;2024-01-11T04:08:59;103526.59;;;-3.36;86.11
81704;BME280;71117;52.352;4.808;2024-01-11T04:11:27;103531.03;;;-3.42;87.05
81704;BME280;71117;52.352;4.808;2024-01-11T04:13:53;103535.66;;;-3.40;86.89
81704;BME280;71117;52.352;4.808;2024-01-11T04:16:18;103538.56;;;-3.37;87.60
81704;BME280;71117;52.352;4.808;2024-01-11T04:18:44;103536.19;;;-3.35;86.59
81704;BME280;71117;52.352;4.808;2024-01-11T04:21:23;103542.09;;;-3.36;86.34
81704;BME280;71117;52.352;4.808;2024-01-11T04:23:48;103546.53;;;-3.35;85.95
81704;BME280;71117;52.352;4.808;2024-01-11T04:26:13;103533.59;;;-3.35;86.77
81704;BME280;71117;52.352;4.808;2024-01-11T04:28:39;103535.28;;;-3.36;86.34
81704;BME280;71117;52.352;4.808;2024-01-11T04:31:04;103547.97;;;-3.37;87.09
81704;BME280;71117;52.352;4.808;2024-01-11T04:33:29;103546.53;;;-3.35;86.58
81704;BME280;71117;52.352;4.808;2024-01-11T04:35:55;103541.72;;;-3.39;85.52
81704;BME280;71117;52.352;4.808;2024-01-11T04:38:20;103553.16;;;-3.37;85.35
81704;BME280;71117;52.352;4.808;2024-01-11T04:40:45;103569.56;;;-3.37;85.59
81704;BME280;71117;52.352;4.808;2024-01-11T04:43:10;103556.84;;;-3.35;85.99
81704;BME280;71117;52.352;4.808;2024-01-11T04:45:36;103557.41;;;-3.38;86.42
81704;BME280;71117;52.352;4.808;2024-01-11T04:48:01;103547.06;;;-3.38;85.30
81704;BME280;71117;52.352;4.808;2024-01-11T04:50:27;103545.06;;;-3.40;86.76
81704;BME280;71117;52.352;4.808;2024-01-11T04:52:52;103547.81;;;-3.39;85.45
81704;BME280;71117;52.352;4.808;2024-01-11T04:55:17;103548.56;;;-3.40;85.91
81704;BME280;71117;52.352;4.808;2024-01-11T04:57:43;103549.47;;;-3.39;86.21
81704;BME280;71117;52.352;4.808;2024-01-11T05:00:09;103535.06;;;-3.37;85.51
81704;BME280;71117;52.352;4.808;2024-01-11T05:02:35;103528.66;;;-3.41;85.53
81704;BME280;71117;52.352;4.808;2024-01-11T05:05:00;103527.53;;;-3.43;85.64
81704;BME280;71117;52.352;4.808;2024-01-11T05:07:27;103528.47;;;-3.50;85.24
81704;BME280;71117;52.352;4.808;2024-01-11T05:09:52;103539.19;;;-3.54;85.83
81704;BME280;71117;52.352;4.808;2024-01-11T05:12:17;103541.19;;;-3.44;85.36
81704;BME280;71117;52.352;4.808;2024-01-11T05:14:43;103534.91;;;-3.39;85.77
81704;BME280;71117;52.352;4.808;2024-01-11T05:17:08;103542.84;;;-3.44;86.66
81704;BME280;71117;52.352;4.808;2024-01-11T05:19:33;103534.16;;;-3.38;86.64
81704;BME280;71117;52.352;4.808;2024-01-11T05:21:59;103531.94;;;-3.35;84.71
81704;BME280;71117;52.352;4.808;2024-01-11T05:24:24;103522.34;;;-3.36;85.47
81704;BME280;71117;52.352;4.808;2024-01-11T05:26:49;103524.00;;;-3.29;84.89
81704;BME280;71117;52.352;4.808;2024-01-11T05:29:15;103526.41;;;-3.31;85.34
81704;BME280;71117;52.352;4.808;2024-01-11T05:31:42;103507.44;;;-3.46;85.62
81704;BME280;71117;52.352;4.808;2024-01-11T05:34:08;103518.72;;;-3.52;85.80
81704;BME280;71117;52.352;4.808;2024-01-11T05:36:37;103523.16;;;-3.65;85.56
81704;BME280;71117;52.352;4.808;2024-01-11T05:39:02;103531.53;;;-3.75;85.57
81704;BME280;71117;52.352;4.808;2024-01-11T05:41:28;103547.22;;;-4.02;85.69
81704;BME280;71117;52.352;4.808;2024-01-11T05:43:53;103544.25;;;-4.05;87.18
81704;BME280;71117;52.352;4.808;2024-01-11T05:46:19;103536.34;;;-4.07;86.68
81704;BME280;71117;52.352;4.808;2024-01-11T05:48:45;103526.41;;;-4.18;86.10
81704;BME280;71117;52.352;4.808;2024-01-11T05:51:10;103541.16;;;-4.24;86.31
81704;BME280;71117;52.352;4.808;2024-01-11T05:53:35;103541.72;;;-4.19;87.29
81704;BME280;71117;52.352;4.808;2024-01-11T05:56:01;103552.38;;;-4.16;86.90
81704;BME280;71117;52.352;4.808;2024-01-11T05:58:26;103558.06;;;-4.05;88.33
81704;BME280;71117;52.352;4.808;2024-01-11T06:00:52;103569.88;;;-4.00;88.54
81704;BME280;71117;52.352;4.808;2024-01-11T06:03:17;103557.34;;;-3.96;86.51
81704;BME280;71117;52.352;4.808;2024-01-11T06:05:42;103558.06;;;-3.83;87.46
81704;BME280;71117;52.352;4.808;2024-01-11T06:08:08;103561.19;;;-3.79;87.99
81704;BME280;71117;52.352;4.808;2024-01-11T06:10:33;103561.78;;;-3.81;86.55
81704;BME280;71117;52.352;4.808;2024-01-11T06:12:58;103578.16;;;-3.74;87.59
81704;BME280;71117;52.352;4.808;2024-01-11T06:15:24;103601.34;;;-3.59;87.16
81704;BME280;71117;52.352;4.808;2024-01-11T06:17:49;103600.94;;;-3.48;86.91
81704;BME280;71117;52.352;4.808;2024-01-11T06:20:14;103616.81;;;-3.45;87.52
81704;BME280;71117;52.352;4.808;2024-01-11T06:22:40;103619.03;;;-3.41;87.42
81704;BME280;71117;52.352;4.808;2024-01-11T06:25:05;103625.09;;;-3.33;87.13
81704;BME280;71117;52.352;4.808;2024-01-11T06:27:31;103617.16;;;-3.28;86.32
81704;BME280;71117;52.352;4.808;2024-01-11T06:29:56;103614.72;;;-3.26;85.20
81704;BME280;71117;52.352;4.808;2024-01-11T06:32:22;103617.13;;;-3.21;85.21
81704;BME280;71117;52.352;4.808;2024-01-11T06:34:47;103622.50;;;-3.19;84.68
81704;BME280;71117;52.352;4.808;2024-01-11T06:37:12;103628.72;;;-3.10;84.32
81704;BME280;71117;52.352;4.808;2024-01-11T06:39:38;103633.50;;;-3.06;82.75
81704;BME280;71117;52.352;4.808;2024-01-11T06:42:04;103635.34;;;-3.05;83.44
81704;BME280;71117;52.352;4.808;2024-01-11T06:44:31;103644.94;;;-3.04;83.30
81704;BME280;71117;52.352;4.808;2024-01-11T06:46:57;103641.22;;;-2.99;83.33
81704;BME280;71117;52.352;4.808;2024-01-11T06:49:25;103642.72;;;-3.01;82.66
81704;BME280;71117;52.352;4.808;2024-01-11T06:51:52;103637.19;;;-2.97;83.78
81704;BME280;71117;52.352;4.808;2024-01-11T06:54:23;103632.94;;;-2.96;83.51
81704;BME280;71117;52.352;4.808;2024-01-11T06:56:48;103623.69;;;-2.94;83.11
81704;BME280;71117;52.352;4.808;2024-01-11T06:59:14;103624.47;;;-3.02;83.38
81704;BME280;71117;52.352;4.808;2024-01-11T07:01:39;103633.34;;;-3.07;83.96
81704;BME280;71117;52.352;4.808;2024-01-11T07:04:04;103618.03;;;-3.13;84.02
81704;BME280;71117;52.352;4.808;2024-01-11T07:06:29;103625.59;;;-3.07;83.30
81704;BME280;71117;52.352;4.808;2024-01-11T07:08:55;103614.13;;;-3.09;84.26
81704;BME280;71117;52.352;4.808;2024-01-11T07:11:23;103623.38;;;-3.11;84.21
81704;BME280;71117;52.352;4.808;2024-01-11T07:13:48;103611.94;;;-3.21;84.44
81704;BME280;71117;52.352;4.808;2024-01-11T07:16:13;103609.19;;;-3.22;83.68
81704;BME280;71117;52.352;4.808;2024-01-11T07:18:39;103606.66;;;-3.29;84.49
81704;BME280;71117;52.352;4.808;2024-01-11T07:21:04;103613.09;;;-3.33;84.71
81704;BME280;71117;52.352;4.808;2024-01-11T07:23:29;103605.19;;;-3.34;84.27
81704;BME280;71117;52.352;4.808;2024-01-11T07:25:55;103608.69;;;-3.48;84.69
81704;BME280;71117;52.352;4.808;2024-01-11T07:28:20;103604.28;;;-3.49;86.21
81704;BME280;71117;52.352;4.808;2024-01-11T07:30:51;103610.94;;;-3.51;86.04
81704;BME280;71117;52.352;4.808;2024-01-11T07:33:17;103618.50;;;-3.60;84.83
81704;BME280;71117;52.352;4.808;2024-01-11T07:35:42;103616.69;;;-3.68;85.27
81704;BME280;71117;52.352;4.808;2024-01-11T07:38:07;103621.13;;;-3.81;85.57
81704;BME280;71117;52.352;4.808;2024-01-11T07:40:38;103616.69;;;-3.89;86.99
81704;BME280;71117;52.352;4.808;2024-01-11T07:43:04;103627.38;;;-3.93;85.78
81704;BME280;71117;52.352;4.808;2024-01-11T07:45:30;103631.25;;;-3.97;86.91
81704;BME280;71117;52.352;4.808;2024-01-11T07:47:55;103626.44;;;-3.94;87.91
81704;BME280;71117;52.352;4.808;2024-01-11T07:50:21;103632.72;;;-3.99;87.50
81704;BME280;71117;52.352;4.808;2024-01-11T07:52:49;103622.03;;;-3.81;89.41
81704;BME280;71117;52.352;4.808;2024-01-11T07:55:14;103622.56;;;-3.62;88.80
81704;BME280;71117;52.352;4.808;2024-01-11T07:57:47;103626.03;;;-3.40;87.91
81704;BME280;71117;52.352;4.808;2024-01-11T08:00:16;103625.06;;;-3.19;88.79
81704;BME280;71117;52.352;4.808;2024-01-11T08:02:44;103624.47;;;-3.02;88.83
81704;BME280;71117;52.352;4.808;2024-01-11T08:05:10;103613.72;;;-2.91;88.22
81704;BME280;71117;52.352;4.808;2024-01-11T08:07:35;103611.63;;;-2.79;87.55
81704;BME280;71117;52.352;4.808;2024-01-11T08:10:06;103605.28;;;-2.67;87.39
81704;BME280;71117;52.352;4.808;2024-01-11T08:12:32;103601.38;;;-2.63;86.57
81704;BME280;71117;52.352;4.808;2024-01-11T08:15:03;103610.44;;;-2.67;86.53
81704;BME280;71117;52.352;4.808;2024-01-11T08:17:28;103617.84;;;-2.70;86.59
81704;BME280;71117;52.352;4.808;2024-01-11T08:19:54;103618.38;;;-2.66;86.30
81704;BME280;71117;52.352;4.808;2024-01-11T08:22:20;103613.41;;;-2.71;86.72
81704;BME280;71117;52.352;4.808;2024-01-11T08:24:46;103619.34;;;-2.72;85.95
81704;BME280;71117;52.352;4.808;2024-01-11T08:27:12;103621.84;;;-2.58;86.20
81704;BME280;71117;52.352;4.808;2024-01-11T08:29:38;103627.72;;;-2.52;85.90
81704;BME280;71117;52.352;4.808;2024-01-11T08:32:03;103640.13;;;-2.56;86.10
81704;BME280;71117;52.352;4.808;2024-01-11T08:34:29;103635.72;;;-2.57;86.01
81704;BME280;71117;52.352;4.808;2024-01-11T08:36:55;103648.63;;;-2.57;86.15
81704;BME280;71117;52.352;4.808;2024-01-11T08:39:20;103646.97;;;-2.57;86.25
81704;BME280;71117;52.352;4.808;2024-01-11T08:41:47;103656.69;;;-2.47;86.31
81704;BME280;71117;52.352;4.808;2024-01-11T08:44:12;103665.69;;;-2.36;87.49
81704;BME280;71117;52.352;4.808;2024-01-11T08:46:38;103665.44;;;-2.24;85.60
81704;BME280;71117;52.352;4.808;2024-01-11T08:49:03;103665.09;;;-2.04;85.53
81704;BME280;71117;52.352;4.808;2024-01-11T08:51:29;103660.00;;;-1.88;85.33
81704;BME280;71117;52.352;4.808;2024-01-11T08:53:54;103668.41;;;-1.75;84.79
81704;BME280;71117;52.352;4.808;2024-01-11T08:56:20;103672.16;;;-1.57;85.11
81704;BME280;71117;52.352;4.808;2024-01-11T08:58:46;103670.16;;;-1.44;84.55
81704;BME280;71117;52.352;4.808;2024-01-11T09:01:12;103673.59;;;-1.36;85.10
81704;BME280;71117;52.352;4.808;2024-01-11T09:03:37;103679.22;;;-1.24;84.20
81704;BME280;71117;52.352;4.808;2024-01-11T09:06:03;103679.66;;;-1.13;83.64
81704;BME280;71117;52.352;4.808;2024-01-11T09:08:29;103677.44;;;-0.94;83.00
81704;BME280;71117;52.352;4.808;2024-01-11T09:10:55;103672.97;;;-0.79;81.91
81704;BME280;71117;52.352;4.808;2024-01-11T09:13:21;103679.50;;;-0.67;81.87
81704;BME280;71117;52.352;4.808;2024-01-11T09:15:46;103681.41;;;-0.57;82.22
81704;BME280;71117;52.352;4.808;2024-01-11T09:18:48;103675.63;;;-0.39;82.76
81704;BME280;71117;52.352;4.808;2024-01-11T09:21:14;103676.94;;;-0.27;81.12
81704;BME280;71117;52.352;4.808;2024-01-11T09:23:39;103681.44;;;-0.17;81.36
81704;BME280;71117;52.352;4.808;2024-01-11T09:26:04;103676.94;;;-0.02;80.39
81704;BME280;71117;52.352;4.808;2024-01-11T09:28:30;103682.63;;;0.03;80.87
81704;BME280;71117;52.352;4.808;2024-01-11T09:30:55;103688.31;;;0.07;81.19
81704;BME280;71117;52.352;4.808;2024-01-11T09:33:25;103693.22;;;0.13;80.35
81704;BME280;71117;52.352;4.808;2024-01-11T09:35:50;103696.81;;;0.31;81.00
81704;BME280;71117;52.352;4.808;2024-01-11T09:38:16;103696.69;;;0.38;80.72
81704;BME280;71117;52.352;4.808;2024-01-11T09:40:41;103698.59;;;0.47;80.44
81704;BME280;71117;52.352;4.808;2024-01-11T09:43:09;103707.34;;;0.57;80.81
81704;BME280;71117;52.352;4.808;2024-01-11T09:45:36;103706.47;;;0.65;80.44
81704;BME280;71117;52.352;4.808;2024-01-11T09:48:03;103711.81;;;0.66;79.74
81704;BME280;71117;52.352;4.808;2024-01-11T09:50:29;103712.56;;;0.65;79.87
81704;BME280;71117;52.352;4.808;2024-01-11T09:52:55;103703.72;;;0.63;80.77
81704;BME280;71117;52.352;4.808;2024-01-11T09:55:23;103699.34;;;0.88;80.27
81704;BME280;71117;52.352;4.808;2024-01-11T09:57:51;103683.00;;;1.06;79.93
81704;BME280;71117;52.352;4.808;2024-01-11T10:00:20;103692.38;;;1.22;79.58
81704;BME280;71117;52.352;4.808;2024-01-11T10:02:47;103686.28;;;1.30;79.12
81704;BME280;71117;52.352;4.808;2024-01-11T10:05:12;103684.09;;;1.35;78.43
81704;BME280;71117;52.352;4.808;2024-01-11T10:07:39;103691.00;;;1.43;78.74
81704;BME280;71117;52.352;4.808;2024-01-11T10:10:05;103695.47;;;1.52;78.71
81704;BME280;71117;52.352;4.808;2024-01-11T10:12:34;103692.84;;;1.44;79.41
81704;BME280;71117;52.352;4.808;2024-01-11T10:15:06;103697.88;;;1.51;79.79
81704;BME280;71117;52.352;4.808;2024-01-11T10:17:36;103700.06;;;1.64;78.38
81704;BME280;71117;52.352;4.808;2024-01-11T10:20:04;103698.50;;;1.66;78.86
81704;BME280;71117;52.352;4.808;2024-01-11T10:22:30;103694.53;;;1.69;79.34
81704;BME280;71117;52.352;4.808;2024-01-11T10:25:16;103695.13;;;1.93;79.27
81704;BME280;71117;52.352;4.808;2024-01-11T10:27:44;103695.09;;;2.01;79.40
81704;BME280;71117;52.352;4.808;2024-01-11T10:30:11;103701.22;;;2.02;78.56
81704;BME280;71117;52.352;4.808;2024-01-11T10:32:44;103693.72;;;2.14;78.73
81704;BME280;71117;52.352;4.808;2024-01-11T10:35:10;103703.03;;;2.11;79.64
81704;BME280;71117;52.352;4.808;2024-01-11T10:37:36;103711.00;;;2.22;78.51
81704;BME280;71117;52.352;4.808;2024-01-11T10:40:05;103713.47;;;2.20;79.95
81704;BME280;71117;52.352;4.808;2024-01-11T10:42:42;103707.59;;;2.31;79.43
81704;BME280;71117;52.352;4.808;2024-01-11T10:45:15;103708.34;;;2.39;78.84
81704;BME280;71117;52.352;4.808;2024-01-11T10:47:53;103710.03;;;2.38;79.12
81704;BME280;71117;52.352;4.808;2024-01-11T10:50:18;103716.34;;;2.32;80.63
81704;BME280;71117;52.352;4.808;2024-01-11T10:55:18;103718.22;;;2.16;80.45
81704;BME280;71117;52.352;4.808;2024-01-11T10:57:45;103719.69;;;2.39;80.92
81704;BME280;71117;52.352;4.808;2024-01-11T11:00:13;103727.78;;;2.51;81.06
81704;BME280;71117;52.352;4.808;2024-01-11T11:02:39;103725.41;;;2.63;79.63
81704;BME280;71117;52.352;4.808;2024-01-11T11:05:07;103727.09;;;2.71;79.26
81704;BME280;71117;52.352;4.808;2024-01-11T11:07:35;103722.16;;;2.74;80.43
81704;BME280;71117;52.352;4.808;2024-01-11T11:10:02;103720.28;;;2.82;79.96
81704;BME280;71117;52.352;4.808;2024-01-11T11:12:31;103716.00;;;2.82;79.72
81704;BME280;71117;52.352;4.808;2024-01-11T11:14:58;103706.47;;;2.83;80.20
81704;BME280;71117;52.352;4.808;2024-01-11T11:17:24;103704.81;;;3.02;79.48
81704;BME280;71117;52.352;4.808;2024-01-11T11:19:50;103705.47;;;3.18;79.15
81704;BME280;71117;52.352;4.808;2024-01-11T11:22:17;103697.59;;;3.27;78.70
81704;BME280;71117;52.352;4.808;2024-01-11T11:24:44;103681.50;;;3.41;78.50
81704;BME280;71117;52.352;4.808;2024-01-11T11:27:13;103677.34;;;3.43;78.29
81704;BME280;71117;52.352;4.808;2024-01-11T11:29:41;103673.38;;;3.57;78.22
81704;BME280;71117;52.352;4.808;2024-01-11T11:32:14;103677.91;;;3.50;77.89
81704;BME280;71117;52.352;4.808;2024-01-11T11:34:42;103669.38;;;3.61;77.38
81704;BME280;71117;52.352;4.808;2024-01-11T11:37:09;103670.84;;;3.67;77.64
81704;BME280;71117;52.352;4.808;2024-01-11T11:39:35;103661.44;;;3.69;77.47
81704;BME280;71117;52.352;4.808;2024-01-11T11:42:01;103664.19;;;3.71;76.74
81704;BME280;71117;52.352;4.808;2024-01-11T11:44:28;103668.28;;;3.78;76.26
81704;BME280;71117;52.352;4.808;2024-01-11T11:46:54;103668.16;;;3.76;77.04
81704;BME280;71117;52.352;4.808;2024-01-11T11:49:19;103666.47;;;3.87;76.75
81704;BME280;71117;52.352;4.808;2024-01-11T11:51:44;103666.00;;;3.91;76.24
81704;BME280;71117;52.352;4.808;2024-01-11T11:54:10;103662.09;;;3.96;76.44
81704;BME280;71117;52.352;4.808;2024-01-11T11:56:36;103660.03;;;4.02;75.73
81704;BME280;71117;52.352;4.808;2024-01-11T11:59:03;103665.91;;;4.00;75.41
81704;BME280;71117;52.352;4.808;2024-01-11T12:01:29;103652.22;;;4.12;75.03
81704;BME280;71117;52.352;4.808;2024-01-11T12:03:58;103644.63;;;4.05;76.02
81704;BME280;71117;52.352;4.808;2024-01-11T12:06:23;103649.56;;;4.02;75.77
81704;BME280;71117;52.352;4.808;2024-01-11T12:08:52;103640.31;;;4.06;75.91
81704;BME280;71117;52.352;4.808;2024-01-11T12:11:20;103631.34;;;4.22;74.89
81704;BME280;71117;52.352;4.808;2024-01-11T12:13:47;103634.47;;;4.18;75.54
81704;BME280;71117;52.352;4.808;2024-01-11T12:16:13;103615.53;;;4.31;74.30
81704;BME280;71117;52.352;4.808;2024-01-11T12:18:39;103616.66;;;4.14;75.27
81704;BME280;71117;52.352;4.808;2024-01-11T12:21:04;103605.78;;;4.00;74.70
81704;BME280;71117;52.352;4.808;2024-01-11T12:23:30;103607.78;;;4.12;75.25
81704;BME280;71117;52.352;4.808;2024-01-11T12:25:57;103604.50;;;4.15;74.47
81704;BME280;71117;52.352;4.808;2024-01-11T12:28:23;103599.94;;;4.12;74.38
81704;BME280;71117;52.352;4.808;2024-01-11T12:30:48;103600.88;;;4.23;75.03
81704;BME280;71117;52.352;4.808;2024-01-11T12:33:13;103599.94;;;4.12;75.29
81704;BME280;71117;52.352;4.808;2024-01-11T12:35:40;103608.72;;;4.23;75.45
81704;BME280;71117;52.352;4.808;2024-01-11T12:38:05;103614.38;;;4.28;74.89
81704;BME280;71117;52.352;4.808;2024-01-11T12:40:35;103605.06;;;4.21;74.77
81704;BME280;71117;52.352;4.808;2024-01-11T12:43:02;103598.50;;;4.16;75.06
81704;BME280;71117;52.352;4.808;2024-01-11T12:45:28;103585.19;;;4.23;75.53
81704;BME280;71117;52.352;4.808;2024-01-11T12:47:55;103583.63;;;4.25;75.60
81704;BME280;71117;52.352;4.808;2024-01-11T12:50:22;103586.22;;;4.25;74.60